Time;durP1;ratioP1;P1;durP2;ratioP2;P2;SDS_P1;SDS_P2;PMS_P1;PMS_P2;Temp;Humidity;BMP_temperature;BMP_pressure;BME280_temperature;BME280_humidity;BME280_pressure;Samples;Min_cycle;Max_cycle;Signal;HPM_P1;HPM_P2
2023/07/16 00:01:56;;;;;;;4.90;1.67;;;;;;;24.40;52.72;100854.09;4988679;28;20394;-70
2023/07/16 00:04:22;;;;;;;5.70;1.65;;;;;;;24.39;52.42;100858.59;4989175;28;20474;-69
2023/07/16 00:06:47;;;;;;;5.82;3.03;;;;;;;24.39;52.73;100853.28;4989540;28;20046;-69
2023/07/16 00:09:12;;;;;;;6.15;1.85;;;;;;;24.37;52.15;100854.41;4988892;28;20121;-70
2023/07/16 00:11:38;;;;;;;4.22;1.63;;;;;;;24.40;52.36;100862.94;4988367;28;20588;-70
2023/07/16 00:14:03;;;;;;;3.78;1.50;;;;;;;24.37;52.46;100854.41;4988781;28;20035;-70
2023/07/16 00:16:28;;;;;;;3.83;1.60;;;;;;;24.37;52.15;100859.75;4988874;28;20039;-70
2023/07/16 00:18:54;;;;;;;4.63;1.60;;;;;;;24.37;51.91;100863.25;4988710;28;20362;-70
2023/07/16 00:21:19;;;;;;;3.78;1.42;;;;;;;24.37;51.81;100870.41;4988557;28;20022;-69
2023/07/16 00:23:45;;;;;;;4.63;1.60;;;;;;;24.37;52.24;100863.25;4989710;28;20455;-70
2023/07/16 00:26:10;;;;;;;3.92;1.67;;;;;;;24.36;51.99;100858.94;4990184;28;20030;-69
2023/07/16 00:28:35;;;;;;;4.75;1.75;;;;;;;24.35;52.17;100859.09;4990567;28;20029;-70
2023/07/16 00:31:01;;;;;;;5.00;1.83;;;;;;;24.33;52.14;100861.91;4990139;28;20037;-70
2023/07/16 00:33:26;;;;;;;4.40;1.75;;;;;;;24.34;51.89;100870.72;4989927;28;20027;-71
2023/07/16 00:35:52;;;;;;;5.35;1.48;;;;;;;24.33;51.75;100861.91;4989641;28;20026;-70
2023/07/16 00:38:18;;;;;;;3.17;1.40;;;;;;;24.33;51.50;100869.09;4989970;28;20034;-70
2023/07/16 00:40:43;;;;;;;3.72;1.63;;;;;;;24.32;51.51;100867.41;4989409;28;20534;-71
2023/07/16 00:43:10;;;;;;;4.82;1.50;;;;;;;24.33;51.49;100871.75;4990650;28;20038;-71
2023/07/16 00:45:36;;;;;;;3.78;1.60;;;;;;;24.31;52.00;100869.25;4990578;28;20451;-71
2023/07/16 00:48:01;;;;;;;5.13;1.75;;;;;;;24.32;51.51;100870.06;4990494;28;20030;-70
2023/07/16 00:50:27;;;;;;;3.17;1.40;;;;;;;24.32;51.89;100864.75;4989681;28;20041;-71
2023/07/16 00:52:53;;;;;;;3.67;1.40;;;;;;;24.30;51.46;100866.75;4986056;28;20042;-70
2023/07/16 00:55:19;;;;;;;4.32;1.30;;;;;;;24.30;51.47;100869.41;4985948;28;20122;-71
2023/07/16 00:57:45;;;;;;;4.72;1.30;;;;;;;24.29;51.78;100860.56;4986372;28;20033;-71
2023/07/16 01:00:11;;;;;;;4.70;1.45;;;;;;;24.30;51.70;100866.75;4985740;28;20040;-70
2023/07/16 01:02:37;;;;;;;4.50;1.48;;;;;;;24.27;51.59;100863.44;4986412;28;20034;-71
2023/07/16 01:05:02;;;;;;;3.80;1.65;;;;;;;24.26;51.16;100868.91;4986493;28;20117;-71
2023/07/16 01:07:30;;;;;;;6.07;1.42;;;;;;;24.27;51.67;100871.41;4986632;28;20109;-71
2023/07/16 01:09:56;;;;;;;3.92;1.50;;;;;;;24.28;51.42;100869.56;4986738;28;20042;-71
2023/07/16 01:12:22;;;;;;;4.65;1.50;;;;;;;24.26;51.31;100858.25;4986509;28;20034;-71
2023/07/16 01:14:49;;;;;;;3.80;1.30;;;;;;;24.25;51.31;100865.41;4985998;28;20101;-71
2023/07/16 01:17:14;;;;;;;5.20;1.70;;;;;;;24.25;51.47;100867.25;4986832;28;20034;-71
2023/07/16 01:19:39;;;;;;;3.85;1.30;;;;;;;24.25;51.09;100865.41;4986813;28;20050;-71
2023/07/16 01:22:48;;;;;;;4.20;1.33;;;;;;;24.23;51.34;100864.75;4986482;28;20342;-71
2023/07/16 01:25:44;;;;;;;2.72;1.20;;;;;;;24.23;51.04;100859.41;4987159;28;20045;-70
2023/07/16 01:28:35;;;;;;;5.00;1.58;;;;;;;24.24;51.33;100855.78;4990066;28;20467;-71
2023/07/16 01:31:01;;;;;;;3.08;1.50;;;;;;;24.23;51.36;100859.41;4990403;28;20534;-71
2023/07/16 01:33:26;;;;;;;4.75;1.35;;;;;;;24.22;50.82;100862.25;4990080;28;20089;-72
2023/07/16 01:35:52;;;;;;;5.82;2.03;;;;;;;24.21;50.86;100864.09;4990484;28;20038;-71
2023/07/16 01:38:18;;;;;;;4.30;1.50;;;;;;;24.21;51.22;100857.91;4988452;28;20390;-71
2023/07/16 01:40:44;;;;;;;3.67;1.30;;;;;;;24.21;51.04;100858.75;4990218;28;20776;-71
2023/07/16 01:43:09;;;;;;;3.40;1.20;;;;;;;24.21;51.35;100858.75;4989349;28;20036;-71
2023/07/16 01:45:35;;;;;;;4.35;1.50;;;;;;;24.21;51.04;100857.91;4990182;28;20026;-71
2023/07/16 01:48:35;;;;;;;4.88;1.40;;;;;;;24.20;50.77;100866.91;4989945;28;20034;-71
2023/07/16 01:51:01;;;;;;;5.15;1.63;;;;;;;24.20;50.65;100859.75;4989403;28;20463;-72
2023/07/16 01:53:26;;;;;;;3.92;1.30;;;;;;;24.19;51.26;100865.22;4989340;28;20084;-71
2023/07/16 01:55:52;;;;;;;3.92;1.27;;;;;;;24.19;50.82;100865.22;4989907;28;20038;-71
2023/07/16 01:58:17;;;;;;;3.42;1.40;;;;;;;24.20;51.05;100865.06;4989588;28;20038;-72
2023/07/16 02:00:43;;;;;;;4.35;1.35;;;;;;;24.18;50.75;100856.41;4989866;28;20198;-71
2023/07/16 02:03:08;;;;;;;5.55;1.38;;;;;;;24.17;50.65;100849.41;4989660;28;20030;-71
2023/07/16 02:05:33;;;;;;;3.53;1.48;;;;;;;24.18;51.23;100861.75;4989819;28;20034;-70
2023/07/16 02:07:59;;;;;;;3.70;1.60;;;;;;;24.17;50.93;100854.75;4989776;28;20038;-71
2023/07/16 02:10:24;;;;;;;4.72;1.42;;;;;;;24.17;51.13;100862.72;4989267;28;20050;-71
2023/07/16 02:12:49;;;;;;;3.72;1.30;;;;;;;24.15;50.86;100859.41;4989403;28;20061;-71
2023/07/16 02:15:15;;;;;;;4.45;1.60;;;;;;;24.18;50.76;100856.41;4989627;28;20058;-71
2023/07/16 02:17:41;;;;;;;3.97;1.35;;;;;;;24.17;50.69;100864.56;4988971;28;20109;-70
2023/07/16 02:20:07;;;;;;;3.42;1.45;;;;;;;24.16;51.13;100863.72;4989308;28;20463;-71
2023/07/16 02:22:35;;;;;;;3.47;1.40;;;;;;;24.16;50.73;100862.91;4989379;28;20356;-71
2023/07/16 02:25:00;;;;;;;3.13;1.20;;;;;;;24.15;50.86;100872.72;4989036;28;20121;-71
2023/07/16 02:27:25;;;;;;;3.15;1.30;;;;;;;24.16;51.28;100868.22;4989196;28;20157;-70
2023/07/16 02:29:51;;;;;;;3.40;1.38;;;;;;;24.14;50.77;100860.41;4988412;28;20467;-71
2023/07/16 02:32:16;;;;;;;4.00;1.52;;;;;;;24.15;51.14;100875.38;4988859;28;20046;-71
2023/07/16 02:34:41;;;;;;;3.13;1.25;;;;;;;24.15;51.10;100878.03;4989122;28;20066;-71
2023/07/16 02:37:07;;;;;;;3.85;1.50;;;;;;;24.15;50.70;100887.84;4988187;28;20117;-72
2023/07/16 02:39:32;;;;;;;4.23;1.47;;;;;;;24.15;50.67;100883.38;4988850;28;20038;-71
2023/07/16 02:41:57;;;;;;;3.35;1.30;;;;;;;24.14;51.33;100881.69;4988972;28;20299;-71
2023/07/16 02:44:23;;;;;;;4.45;1.50;;;;;;;24.12;51.14;100875.72;4988709;28;20042;-72
2023/07/16 02:46:48;;;;;;;3.85;1.40;;;;;;;24.12;50.79;100875.72;4988755;28;20041;-71
2023/07/16 02:49:13;;;;;;;3.25;1.33;;;;;;;24.11;50.78;100870.56;4988697;28;20037;-70
2023/07/16 02:51:38;;;;;;;4.18;1.60;;;;;;;24.13;51.04;100879.19;4988700;28;20094;-70
2023/07/16 02:54:04;;;;;;;5.40;1.30;;;;;;;24.12;50.72;100881.03;4987950;28;20455;-69
2023/07/16 02:56:29;;;;;;;5.97;1.70;;;;;;;24.12;51.20;100874.88;4988813;28;20022;-69
2023/07/16 02:58:54;;;;;;;6.63;2.00;;;;;;;24.12;51.04;100882.88;4988548;28;20030;-70
2023/07/16 03:01:20;;;;;;;4.10;1.58;;;;;;;24.12;50.53;100891.69;4988734;28;20267;-69
2023/07/16 03:03:45;;;;;;;4.28;1.60;;;;;;;24.11;51.00;100891.84;4988215;28;20033;-70
2023/07/16 03:06:11;;;;;;;4.38;1.40;;;;;;;24.10;50.80;100888.34;4988674;28;20025;-70
2023/07/16 03:08:36;;;;;;;3.20;1.42;;;;;;;24.10;50.61;100885.69;4988116;28;20032;-70
2023/07/16 03:11:01;;;;;;;4.60;1.48;;;;;;;24.08;50.92;100880.53;4987950;28;20046;-71
2023/07/16 03:13:27;;;;;;;4.10;1.40;;;;;;;24.09;50.54;100897.34;4988401;28;20018;-71
2023/07/16 03:15:52;;;;;;;3.58;1.40;;;;;;;24.10;51.06;100899.00;4988189;28;20113;-70
2023/07/16 03:18:19;;;;;;;4.32;1.30;;;;;;;24.09;50.88;100902.66;4987123;28;20114;-71
2023/07/16 03:20:44;;;;;;;4.10;1.52;;;;;;;24.09;50.73;100903.47;4986846;28;20027;-70
2023/07/16 03:23:10;;;;;;;4.85;1.63;;;;;;;24.08;50.46;100900.97;4987286;28;20348;-71
2023/07/16 03:25:35;;;;;;;5.38;1.30;;;;;;;24.06;50.47;100901.13;4988041;28;20042;-70
2023/07/16 03:28:01;;;;;;;3.15;1.25;;;;;;;24.08;50.41;100911.63;4987905;28;20037;-70
2023/07/16 03:30:26;;;;;;;7.03;2.78;;;;;;;24.08;50.23;100916.94;4987946;28;20093;-71
2023/07/16 03:32:51;;;;;;;3.80;1.77;;;;;;;24.07;50.42;100913.47;4987560;28;20038;-71
2023/07/16 03:35:17;;;;;;;3.65;1.48;;;;;;;24.05;50.45;100909.28;4988023;28;20077;-71
2023/07/16 03:37:42;;;;;;;4.72;1.60;;;;;;;24.06;50.42;100914.44;4988282;28;20177;-71
2023/07/16 03:40:15;;;;;;;4.28;1.65;;;;;;;24.04;50.36;100918.28;4987447;28;20173;-72
2023/07/16 03:42:41;;;;;;;6.67;1.93;;;;;;;24.06;49.97;100924.28;4970265;28;20378;-71
2023/07/16 03:45:07;;;;;;;5.20;1.80;;;;;;;24.03;50.20;100920.09;4987864;28;20315;-70
2023/07/16 03:47:32;;;;;;;3.80;1.50;;;;;;;24.05;50.17;100917.28;4987299;28;21059;-71
2023/07/16 03:49:57;;;;;;;5.03;1.70;;;;;;;24.02;50.03;100918.44;4986702;28;20085;-70
2023/07/16 03:52:24;;;;;;;5.47;1.60;;;;;;;24.02;49.87;100921.13;4986832;28;20042;-71
2023/07/16 03:54:50;;;;;;;3.92;1.63;;;;;;;24.04;49.90;100931.59;4987534;28;20034;-69
2023/07/16 03:57:15;;;;;;;3.83;1.70;;;;;;;24.02;49.68;100929.09;4987203;28;20417;-71
2023/07/16 03:59:41;;;;;;;6.25;1.80;;;;;;;24.02;49.88;100937.09;4987260;28;20033;-71
2023/07/16 04:02:07;;;;;;;4.20;1.70;;;;;;;24.03;49.70;100935.25;4987211;28;20026;-71
2023/07/16 04:04:32;;;;;;;4.43;1.70;;;;;;;24.00;49.88;100935.56;4987300;28;20036;-70
2023/07/16 04:06:58;;;;;;;4.78;1.77;;;;;;;24.01;49.81;100945.22;4986834;28;20330;-71
2023/07/16 04:09:23;;;;;;;4.50;2.10;;;;;;;24.00;49.44;100943.56;4987546;28;20487;-71
2023/07/16 04:11:48;;;;;;;5.13;1.90;;;;;;;24.01;49.47;100946.06;4987311;28;20046;-71
2023/07/16 04:14:14;;;;;;;5.03;1.80;;;;;;;24.00;49.66;100951.53;4987373;28;20026;-71
2023/07/16 04:16:39;;;;;;;5.03;2.03;;;;;;;24.01;49.16;100951.38;4987128;28;20030;-71
2023/07/16 04:19:05;;;;;;;4.05;1.75;;;;;;;23.98;49.45;100958.84;4986997;28;20034;-71
2023/07/16 04:21:30;;;;;;;5.88;1.80;;;;;;;23.97;49.12;100960.66;4987173;28;20042;-71
2023/07/16 04:23:55;;;;;;;5.15;2.05;;;;;;;23.96;49.30;100966.16;4986959;28;20034;-71
2023/07/16 04:26:21;;;;;;;5.72;1.85;;;;;;;24.00;49.03;100972.84;4986218;28;20379;-70
2023/07/16 04:28:46;;;;;;;6.45;2.00;;;;;;;23.98;48.84;100973.00;4987322;28;20049;-70
2023/07/16 04:31:11;;;;;;;4.32;2.00;;;;;;;23.98;49.35;100969.50;4985885;28;20046;-70
2023/07/16 04:33:37;;;;;;;3.50;1.70;;;;;;;23.98;49.43;100974.84;4986666;28;20038;-70
2023/07/16 04:36:02;;;;;;;4.37;1.90;;;;;;;23.96;48.83;100979.47;4987150;28;20092;-70
2023/07/16 04:38:27;;;;;;;5.50;1.80;;;;;;;23.97;49.15;100986.47;4986729;28;20725;-70
2023/07/16 04:40:53;;;;;;;5.72;2.13;;;;;;;23.94;49.15;100982.31;4985959;28;20042;-71
2023/07/16 04:43:18;;;;;;;5.35;2.15;;;;;;;23.94;48.74;100982.31;4985397;28;20041;-71
2023/07/16 04:45:46;;;;;;;5.25;2.30;;;;;;;23.94;49.31;100984.97;4986007;28;20356;-70
2023/07/16 04:48:12;;;;;;;4.07;2.00;;;;;;;23.95;49.15;101001.78;4986776;28;20031;-70
2023/07/16 04:50:38;;;;;;;5.25;1.90;;;;;;;23.95;48.71;101007.91;4986683;28;20030;-70
2023/07/16 04:53:03;;;;;;;5.03;2.13;;;;;;;23.93;49.01;101001.09;4986575;28;20035;-69
2023/07/16 04:55:29;;;;;;;5.68;2.10;;;;;;;23.93;48.58;101003.75;4986402;28;20057;-72
2023/07/16 04:57:56;;;;;;;4.72;2.35;;;;;;;23.94;48.61;101003.59;4986793;28;20034;-71
2023/07/16 05:00:22;;;;;;;5.18;2.35;;;;;;;23.93;48.99;101015.22;4988059;28;20030;-71
2023/07/16 05:02:47;;;;;;;6.68;2.42;;;;;;;23.93;48.67;101011.75;4990852;28;20081;-71
2023/07/16 05:05:13;;;;;;;4.53;2.25;;;;;;;23.93;49.05;101017.06;4990016;28;20497;-71
2023/07/16 05:07:38;;;;;;;5.68;2.15;;;;;;;23.93;48.56;101014.41;4990552;28;20022;-71
2023/07/16 05:10:04;;;;;;;5.63;2.30;;;;;;;23.93;48.55;101011.75;4990166;28;20050;-71
2023/07/16 05:12:30;;;;;;;5.72;2.25;;;;;;;23.91;48.37;101009.25;4990219;28;20037;-71
2023/07/16 05:14:55;;;;;;;4.80;2.10;;;;;;;23.93;48.74;101014.41;4990531;28;20030;-71
2023/07/16 05:17:20;;;;;;;5.82;2.50;;;;;;;23.92;48.65;101010.06;4990723;28;20430;-71
2023/07/16 05:19:45;;;;;;;5.05;2.20;;;;;;;23.87;48.70;101010.53;4990270;28;20069;-71
2023/07/16 05:22:11;;;;;;;6.20;2.45;;;;;;;23.89;48.39;101012.06;4991022;28;20027;-70
2023/07/16 05:24:36;;;;;;;5.65;2.58;;;;;;;23.90;48.81;101026.19;4988618;28;20382;-70
2023/07/16 05:27:02;;;;;;;5.82;2.63;;;;;;;23.90;48.78;101018.22;4990563;28;20057;-71
2023/07/16 05:29:27;;;;;;;5.50;2.63;;;;;;;23.89;48.97;101016.53;4989590;28;20479;-71
2023/07/16 05:31:53;;;;;;;6.72;2.58;;;;;;;23.87;48.79;101016.69;4990245;28;20089;-70
2023/07/16 05:34:18;;;;;;;5.55;2.38;;;;;;;23.89;48.76;101014.72;4990411;28;20362;-70
2023/07/16 05:36:46;;;;;;;5.95;2.53;;;;;;;23.89;48.23;101016.53;4990309;28;20420;-71
2023/07/16 05:39:12;;;;;;;6.18;2.65;;;;;;;23.89;48.44;101019.19;4990193;28;20077;-70
2023/07/16 05:41:39;;;;;;;5.43;2.63;;;;;;;23.89;48.52;101025.38;4989774;28;20046;-70
2023/07/16 05:44:04;;;;;;;5.50;2.40;;;;;;;23.88;48.19;101030.84;4989538;28;20570;-70
2023/07/16 05:46:30;;;;;;;4.70;2.35;;;;;;;23.89;48.26;101029.84;4989813;28;20121;-70
2023/07/16 05:48:55;;;;;;;4.57;2.47;;;;;;;23.87;48.34;101027.34;4989818;28;20034;-69
2023/07/16 05:51:20;;;;;;;7.03;2.65;;;;;;;23.87;48.75;101027.34;4989564;28;20057;-71
2023/07/16 05:53:46;;;;;;;7.13;2.95;;;;;;;23.87;48.22;101039.81;4989415;28;20374;-71
2023/07/16 05:56:12;;;;;;;6.10;2.58;;;;;;;23.87;48.14;101037.97;4989174;28;20034;-71
2023/07/16 05:58:37;;;;;;;7.22;2.65;;;;;;;23.87;48.56;101042.47;4989623;28;20030;-71
2023/07/16 06:01:02;;;;;;;5.75;3.08;;;;;;;23.86;48.26;101044.31;4990051;28;20045;-71
2023/07/16 06:03:28;;;;;;;6.57;3.20;;;;;;;23.88;48.10;101050.31;4989637;28;20081;-70
2023/07/16 06:05:53;;;;;;;5.78;2.90;;;;;;;23.86;48.55;101057.63;4989834;28;20125;-70
2023/07/16 06:08:18;;;;;;;6.68;3.20;;;;;;;23.86;48.19;101060.28;4989273;28;20101;-70
2023/07/16 06:10:45;;;;;;;5.13;2.50;;;;;;;23.85;48.15;101063.09;4989118;28;20046;-70
2023/07/16 06:13:10;;;;;;;5.70;3.20;;;;;;;23.86;48.05;101057.63;4988243;28;21069;-70
2023/07/16 06:15:36;;;;;;;5.07;2.80;;;;;;;23.85;48.10;101057.78;4989751;28;20027;-70
2023/07/16 06:18:01;;;;;;;5.55;2.83;;;;;;;23.88;48.58;101066.28;4989243;28;20045;-70
2023/07/16 06:20:28;;;;;;;5.40;2.72;;;;;;;23.86;48.74;101067.41;4989115;28;20038;-69
2023/07/16 06:22:53;;;;;;;5.68;2.88;;;;;;;23.86;48.08;101060.28;4989156;28;20030;-70
2023/07/16 06:25:19;;;;;;;7.82;3.47;;;;;;;23.88;48.18;101070.78;4989219;28;20026;-70
2023/07/16 06:27:44;;;;;;;6.32;2.88;;;;;;;23.88;47.61;101070.78;4988933;28;20026;-71
2023/07/16 06:30:09;;;;;;;5.70;2.80;;;;;;;23.86;48.06;101065.59;4988821;28;20109;-71
2023/07/16 06:32:35;;;;;;;5.32;2.80;;;;;;;23.87;48.17;101077.91;4988456;28;20030;-71
2023/07/16 06:35:00;;;;;;;5.85;2.90;;;;;;;23.86;48.45;101078.91;4988780;28;20125;-68
2023/07/16 06:37:26;;;;;;;5.63;2.85;;;;;;;23.85;48.88;101065.75;4988963;28;20419;-69
2023/07/16 06:39:51;;;;;;;5.82;3.00;;;;;;;23.86;48.54;101081.56;4988362;28;20046;-70
2023/07/16 06:42:16;;;;;;;5.18;3.17;;;;;;;23.86;48.59;101075.41;4988636;28;20340;-69
2023/07/16 06:44:42;;;;;;;6.47;3.05;;;;;;;23.88;48.64;101081.41;4989075;28;20026;-69
2023/07/16 06:47:07;;;;;;;6.68;2.95;;;;;;;23.88;48.82;101089.41;4988495;28;20133;-70
2023/07/16 06:49:32;;;;;;;8.85;2.95;;;;;;;23.86;48.84;101083.38;4988173;28;20540;-69
2023/07/16 06:52:01;;;;;;;7.70;3.40;;;;;;;23.86;48.73;101081.56;4988252;28;20432;-69
2023/07/16 06:54:27;;;;;;;6.97;2.95;;;;;;;23.91;48.42;101097.06;4988384;28;20037;-69
2023/07/16 06:56:52;;;;;;;5.53;2.92;;;;;;;23.89;48.66;101091.91;4988604;28;20030;-69
2023/07/16 06:59:17;;;;;;;8.18;3.25;;;;;;;23.91;48.55;101099.72;4988413;28;20037;-69
2023/07/16 07:01:43;;;;;;;5.53;3.05;;;;;;;23.90;48.48;101101.53;4987838;28;20050;-70
2023/07/16 07:04:08;;;;;;;7.07;3.22;;;;;;;23.90;48.89;101108.69;4987976;28;20030;-70
2023/07/16 07:06:33;;;;;;;6.18;3.03;;;;;;;23.90;48.46;101106.88;4986945;28;20030;-68
2023/07/16 07:08:59;;;;;;;6.85;3.10;;;;;;;23.91;48.86;101107.72;4987299;28;20054;-68
2023/07/16 07:11:24;;;;;;;6.18;3.22;;;;;;;23.89;48.49;101113.19;4986480;28;20030;-70
2023/07/16 07:13:50;;;;;;;5.75;3.20;;;;;;;23.88;49.17;101100.88;4988221;28;20041;-69
2023/07/16 07:16:15;;;;;;;7.18;3.22;;;;;;;23.88;49.03;101122.16;4988181;28;20030;-70
2023/07/16 07:18:41;;;;;;;6.07;3.47;;;;;;;23.88;49.22;101126.66;4988095;28;20106;-68
2023/07/16 07:21:06;;;;;;;7.50;3.97;;;;;;;23.87;49.00;101117.00;4987814;28;21178;-69
2023/07/16 07:23:31;;;;;;;6.65;3.75;;;;;;;23.87;49.27;101120.47;4988471;28;20030;-70
2023/07/16 07:25:56;;;;;;;6.95;3.40;;;;;;;23.90;48.61;101128.16;4987894;28;20137;-70
2023/07/16 07:28:22;;;;;;;6.03;3.58;;;;;;;23.92;48.82;101132.50;4987783;28;20032;-72
2023/07/16 07:30:47;;;;;;;6.88;3.63;;;;;;;23.93;48.75;101136.84;4987564;28;20034;-71
2023/07/16 07:33:13;;;;;;;8.10;3.55;;;;;;;23.96;49.18;101129.38;4969439;28;20371;-71
2023/07/16 07:35:38;;;;;;;7.50;3.85;;;;;;;23.99;49.02;101141.50;4987694;28;20042;-71
2023/07/16 07:38:03;;;;;;;6.75;3.55;;;;;;;24.00;48.99;101135.22;4986416;28;20038;-71
2023/07/16 07:40:29;;;;;;;9.63;4.03;;;;;;;24.03;48.81;101134.91;4987126;28;20121;-70
2023/07/16 07:42:54;;;;;;;7.63;3.78;;;;;;;24.06;48.34;101140.72;4987225;28;20037;-70
2023/07/16 07:45:19;;;;;;;7.85;3.53;;;;;;;24.05;48.72;101128.44;4987212;28;20026;-73
2023/07/16 07:47:45;;;;;;;9.07;4.10;;;;;;;24.08;48.35;101140.59;4986684;28;20417;-70
2023/07/16 07:50:10;;;;;;;9.73;4.05;;;;;;;24.09;48.19;101139.59;4982745;28;20029;-70
2023/07/16 07:52:35;;;;;;;7.30;3.53;;;;;;;24.11;48.34;101142.94;4986851;28;20100;-71
2023/07/16 07:55:01;;;;;;;6.53;4.05;;;;;;;24.10;48.13;101146.59;4987579;28;20066;-71
2023/07/16 07:57:26;;;;;;;6.32;3.90;;;;;;;24.08;48.12;101137.91;4986642;28;20034;-71
2023/07/16 07:59:56;;;;;;;7.57;4.80;;;;;;;24.09;48.71;101142.25;4969650;28;20431;-69
2023/07/16 08:02:23;;;;;;;8.27;4.00;;;;;;;24.11;48.07;101129.63;4986628;28;20034;-68
2023/07/16 08:04:49;;;;;;;13.45;4.30;;;;;;;24.11;48.08;101140.25;4987095;28;20022;-68
2023/07/16 08:07:15;;;;;;;7.18;3.80;;;;;;;24.13;48.13;101145.44;4987380;28;20527;-71
2023/07/16 08:09:40;;;;;;;8.23;3.80;;;;;;;24.12;48.23;101138.47;4987037;28;20129;-72
2023/07/16 08:12:06;;;;;;;8.90;3.65;;;;;;;24.06;48.42;101143.41;4986764;28;20038;-73
2023/07/16 08:14:32;;;;;;;8.75;4.35;;;;;;;24.08;48.06;101135.25;4986713;28;20046;-75
2023/07/16 08:16:57;;;;;;;6.30;3.70;;;;;;;24.07;48.34;101146.91;4985740;28;20019;-74
2023/07/16 08:19:23;;;;;;;7.82;4.18;;;;;;;24.06;48.06;101138.06;4986676;28;20038;-72
2023/07/16 08:21:48;;;;;;;7.28;4.20;;;;;;;24.05;48.47;101139.09;4986939;28;20030;-74
2023/07/16 08:24:13;;;;;;;8.07;4.10;;;;;;;24.07;48.09;101145.09;4984454;28;20376;-72
2023/07/16 08:26:39;;;;;;;7.88;4.00;;;;;;;24.12;47.91;101144.63;4986573;28;20297;-72
2023/07/16 08:29:04;;;;;;;7.45;3.78;;;;;;;24.12;48.00;101152.59;4985752;28;20085;-72
2023/07/16 08:31:30;;;;;;;7.00;3.50;;;;;;;24.05;48.46;101135.56;4983956;28;20633;-68
2023/07/16 08:33:55;;;;;;;7.63;3.88;;;;;;;24.07;48.21;101145.09;4985206;28;20725;-67
2023/07/16 08:36:20;;;;;;;7.53;3.70;;;;;;;24.07;48.52;101145.09;4983743;28;20042;-67
2023/07/16 08:38:46;;;;;;;7.22;4.07;;;;;;;24.04;48.65;101153.38;4986408;28;20403;-67
2023/07/16 08:41:11;;;;;;;5.93;3.67;;;;;;;24.06;48.26;101155.88;4988464;28;20041;-67
2023/07/16 08:43:39;;;;;;;5.80;3.78;;;;;;;24.03;48.83;101154.34;4986725;28;20268;-66
2023/07/16 08:46:05;;;;;;;6.18;3.75;;;;;;;24.03;48.61;101149.03;4986123;28;20523;-67
2023/07/16 08:48:30;;;;;;;6.60;3.92;;;;;;;24.01;48.56;101152.88;4986605;28;20114;-66
2023/07/16 08:50:58;;;;;;;7.38;4.03;;;;;;;24.02;48.94;101151.84;4984738;28;20058;-66
2023/07/16 08:53:23;;;;;;;7.97;4.68;;;;;;;24.02;48.78;101160.69;4987053;28;20030;-68
2023/07/16 08:55:49;;;;;;;9.18;4.18;;;;;;;24.01;49.09;101156.34;4985820;28;20050;-67
2023/07/16 08:58:15;;;;;;;6.03;3.60;;;;;;;24.03;48.76;101158.84;4986738;28;20045;-69
2023/07/16 09:00:50;;;;;;;6.97;4.03;;;;;;;24.01;49.19;101169.66;4986574;28;20026;-68
2023/07/16 09:03:18;;;;;;;7.10;4.00;;;;;;;24.01;49.03;101163.50;4986419;28;20109;-67
2023/07/16 09:05:44;;;;;;;9.80;4.40;;;;;;;24.01;48.89;101164.34;4986383;28;20069;-68
2023/07/16 09:08:09;;;;;;;9.27;3.97;;;;;;;24.01;48.82;101171.50;4986606;28;20534;-67
2023/07/16 09:10:35;;;;;;;7.30;3.55;;;;;;;24.01;48.94;101172.31;4986175;28;20050;-67
2023/07/16 09:13:01;;;;;;;8.15;3.83;;;;;;;23.99;48.77;101170.78;4984774;28;20030;-68
2023/07/16 09:15:29;;;;;;;7.38;4.05;;;;;;;24.00;48.51;101165.31;4985271;28;20049;-71
2023/07/16 09:17:55;;;;;;;7.75;3.58;;;;;;;24.00;48.66;101175.97;4985777;28;20456;-69
2023/07/16 09:20:23;;;;;;;7.95;3.75;;;;;;;23.97;48.31;101170.94;4985693;28;20077;-68
2023/07/16 09:22:49;;;;;;;8.18;3.67;;;;;;;24.04;48.70;101176.50;4984888;28;20085;-68
2023/07/16 09:25:14;;;;;;;7.97;3.60;;;;;;;24.01;48.88;101184.81;4984177;28;20411;-68
2023/07/16 09:27:39;;;;;;;7.57;3.72;;;;;;;24.02;48.90;101181.13;4984770;28;20052;-69
2023/07/16 09:30:06;;;;;;;7.03;3.60;;;;;;;24.09;48.28;101179.53;4982173;28;20085;-68
2023/07/16 09:32:33;;;;;;;9.07;3.75;;;;;;;24.15;48.40;101180.72;4985128;28;20034;-67
2023/07/16 09:34:59;;;;;;;8.27;3.65;;;;;;;24.13;48.37;101185.38;4984396;28;20066;-69
2023/07/16 09:37:24;;;;;;;6.97;3.70;;;;;;;24.09;48.13;101190.19;4984575;28;20073;-69
2023/07/16 09:39:51;;;;;;;6.70;3.80;;;;;;;24.06;48.29;101178.00;4985681;28;20061;-69
2023/07/16 09:42:18;;;;;;;5.55;3.63;;;;;;;24.06;48.30;101195.81;4985731;28;20041;-69
2023/07/16 09:44:44;;;;;;;7.32;3.97;;;;;;;24.05;48.63;101181.69;4985411;28;20021;-68
2023/07/16 09:47:09;;;;;;;9.57;3.30;;;;;;;24.07;48.49;101184.19;4981753;28;20038;-69
2023/07/16 09:49:35;;;;;;;7.53;3.72;;;;;;;24.16;48.34;101199.19;4970187;28;20038;-67
2023/07/16 09:52:02;;;;;;;8.48;3.47;;;;;;;24.19;47.76;101214.88;4988518;28;20386;-67
2023/07/16 09:54:32;;;;;;;7.85;3.92;;;;;;;24.21;47.91;101214.72;4987522;28;20037;-69
2023/07/16 09:57:00;;;;;;;7.40;3.75;;;;;;;24.26;47.69;101209.78;4987033;28;20057;-68
2023/07/16 09:59:30;;;;;;;6.35;3.25;;;;;;;24.26;47.58;101210.59;4988409;28;20038;-67
2023/07/16 10:01:56;;;;;;;9.10;3.63;;;;;;;24.30;47.79;101207.63;4988514;28;20042;-69
2023/07/16 10:04:22;;;;;;;6.57;3.50;;;;;;;24.33;47.55;101212.66;4988533;28;20058;-69
2023/07/16 10:07:01;;;;;;;6.55;3.22;;;;;;;24.31;47.62;101211.94;4989309;28;20077;-67
2023/07/16 10:09:40;;;;;;;6.53;3.63;;;;;;;24.33;47.53;101221.47;4987161;28;20051;-70
2023/07/16 10:12:19;;;;;;;7.07;3.35;;;;;;;24.24;47.81;101215.25;4986473;28;20030;-71
2023/07/16 10:14:52;;;;;;;6.93;3.38;;;;;;;24.30;47.40;101224.44;4985004;28;20046;-69
2023/07/16 10:17:18;;;;;;;8.13;3.72;;;;;;;24.28;47.93;101223.75;4987323;28;20490;-67
2023/07/16 10:19:59;;;;;;;6.17;3.37;;;;;;;24.24;47.85;101239.22;4987800;28;20089;-70
2023/07/16 10:22:51;;;;;;;7.57;3.45;;;;;;;24.19;47.87;101230.84;4988642;28;20270;-68
2023/07/16 10:25:19;;;;;;;7.38;3.47;;;;;;;24.18;47.99;101239.84;4982843;28;20038;-70
2023/07/16 10:27:46;;;;;;;7.22;3.97;;;;;;;24.16;48.16;101233.00;4988206;28;20274;-69
2023/07/16 10:30:12;;;;;;;6.53;3.33;;;;;;;24.13;48.61;101244.78;4986913;28;20988;-69
2023/07/16 10:32:37;;;;;;;8.70;3.35;;;;;;;24.11;48.15;101232.63;4988207;28;20045;-69
2023/07/16 10:35:05;;;;;;;9.18;3.80;;;;;;;24.12;48.54;101228.97;4987969;28;20039;-70
2023/07/16 10:37:31;;;;;;;7.15;3.58;;;;;;;24.12;48.83;101232.47;4987383;28;20022;-70
2023/07/16 10:39:58;;;;;;;10.93;3.85;;;;;;;24.13;48.93;101238.63;4987977;28;20040;-70
2023/07/16 10:42:25;;;;;;;7.18;3.20;;;;;;;24.11;49.27;101230.78;4986348;28;20042;-69
2023/07/16 10:44:52;;;;;;;9.10;3.78;;;;;;;24.09;49.08;101236.28;4988163;28;20077;-71
2023/07/16 10:47:25;;;;;;;7.53;3.80;;;;;;;24.10;48.90;101242.44;4987560;28;21493;-69
2023/07/16 10:49:54;;;;;;;8.02;3.58;;;;;;;24.10;49.49;101250.44;4989094;28;20035;-68
2023/07/16 10:52:23;;;;;;;8.00;3.70;;;;;;;24.08;49.19;101249.72;4988390;28;20041;-68
2023/07/16 10:54:55;;;;;;;8.05;3.85;;;;;;;24.07;49.11;101251.56;4988309;28;20094;-68
2023/07/16 10:57:21;;;;;;;7.20;3.00;;;;;;;24.06;48.85;101251.72;4987748;28;20026;-70
2023/07/16 10:59:48;;;;;;;7.35;3.10;;;;;;;24.05;49.27;101260.69;4986321;28;20467;-69
2023/07/16 11:02:15;;;;;;;6.00;3.08;;;;;;;24.04;48.89;101259.88;4986744;28;20069;-69
2023/07/16 11:04:41;;;;;;;8.57;3.50;;;;;;;24.04;48.81;101267.03;4988014;28;20502;-70
2023/07/16 11:07:13;;;;;;;6.57;3.40;;;;;;;24.03;48.69;101268.00;4987523;28;20088;-69
2023/07/16 11:09:44;;;;;;;6.45;3.60;;;;;;;24.05;49.01;101277.53;4987658;28;20056;-69
2023/07/16 11:12:14;;;;;;;6.93;3.65;;;;;;;24.05;48.47;101284.66;4987793;28;20037;-69
2023/07/16 11:14:51;;;;;;;7.03;3.50;;;;;;;24.01;48.46;101270.00;4987964;28;20030;-69
2023/07/16 11:17:16;;;;;;;7.43;3.03;;;;;;;24.03;48.41;101279.47;4987976;28;20061;-69
2023/07/16 11:19:45;;;;;;;8.02;3.30;;;;;;;24.04;48.63;101273.19;4982353;28;20132;-68
2023/07/16 11:22:11;;;;;;;6.95;3.50;;;;;;;24.04;48.43;101277.69;4985921;28;20156;-69